sensor_id;sensor_type;location;lat;lon;timestamp;pressure;altitude;pressure_sealevel;temperature;humidity
37892;BME280;45797;47.466;9.486;2023-05-20T00:02:51;95778.56;;;13.37;66.75
37892;BME280;45797;47.466;9.486;2023-05-20T00:07:53;95780.84;;;13.30;66.77
37892;BME280;45797;47.466;9.486;2023-05-20T00:12:54;95776.78;;;13.26;66.96
37892;BME280;45797;47.466;9.486;2023-05-20T00:18:10;95781.25;;;13.14;66.96
37892;BME280;45797;47.466;9.486;2023-05-20T00:23:11;95774.44;;;13.12;67.06
37892;BME280;45797;47.466;9.486;2023-05-20T00:28:11;95765.25;;;13.06;67.19
37892;BME280;45797;47.466;9.486;2023-05-20T00:33:13;95770.06;;;13.01;66.97
37892;BME280;45797;47.466;9.486;2023-05-20T00:38:15;95772.22;;;12.96;67.35
37892;BME280;45797;47.466;9.486;2023-05-20T00:43:17;95769.41;;;12.88;67.42
37892;BME280;45797;47.466;9.486;2023-05-20T00:48:20;95769.44;;;12.77;67.97
37892;BME280;45797;47.466;9.486;2023-05-20T00:53:24;95769.34;;;12.67;67.86
37892;BME280;45797;47.466;9.486;2023-05-20T00:58:24;95767.34;;;12.59;67.73
37892;BME280;45797;47.466;9.486;2023-05-20T01:03:25;95758.75;;;12.57;68.14
37892;BME280;45797;47.466;9.486;2023-05-20T01:08:27;95758.03;;;12.55;67.88
37892;BME280;45797;47.466;9.486;2023-05-20T01:13:49;95748.53;;;12.43;67.87
37892;BME280;45797;47.466;9.486;2023-05-20T01:18:56;95753.78;;;12.43;68.08
37892;BME280;45797;47.466;9.486;2023-05-20T01:23:59;95759.25;;;12.40;68.20
37892;BME280;45797;47.466;9.486;2023-05-20T01:29:05;95747.34;;;12.36;68.23
37892;BME280;45797;47.466;9.486;2023-05-20T01:34:08;95744.00;;;12.34;68.37
37892;BME280;45797;47.466;9.486;2023-05-20T01:39:13;95740.69;;;12.32;68.37
37892;BME280;45797;47.466;9.486;2023-05-20T01:44:22;95733.97;;;12.28;68.52
37892;BME280;45797;47.466;9.486;2023-05-20T01:49:25;95722.50;;;12.29;68.94
37892;BME280;45797;47.466;9.486;2023-05-20T01:54:33;95728.16;;;12.24;68.50
37892;BME280;45797;47.466;9.486;2023-05-20T01:59:37;95739.50;;;12.25;68.40
37892;BME280;45797;47.466;9.486;2023-05-20T02:04:46;95726.72;;;12.20;68.77
37892;BME280;45797;47.466;9.486;2023-05-20T02:09:47;95733.03;;;12.18;68.84
37892;BME280;45797;47.466;9.486;2023-05-20T02:14:49;95733.75;;;12.20;68.48
37892;BME280;45797;47.466;9.486;2023-05-20T02:20:00;95724.22;;;12.19;68.64
37892;BME280;45797;47.466;9.486;2023-05-20T02:25:04;95718.69;;;12.22;68.86
37892;BME280;45797;47.466;9.486;2023-05-20T02:30:13;95719.78;;;12.19;68.62
37892;BME280;45797;47.466;9.486;2023-05-20T02:35:20;95713.56;;;12.20;68.79
37892;BME280;45797;47.466;9.486;2023-05-20T02:40:32;95725.28;;;12.16;68.59
37892;BME280;45797;47.466;9.486;2023-05-20T02:45:35;95722.53;;;12.18;68.76
37892;BME280;45797;47.466;9.486;2023-05-20T02:50:37;95713.13;;;12.15;69.09
37892;BME280;45797;47.466;9.486;2023-05-20T02:55:39;95707.25;;;12.12;69.08
37892;BME280;45797;47.466;9.486;2023-05-20T03:00:40;95700.59;;;12.08;69.16
37892;BME280;45797;47.466;9.486;2023-05-20T03:05:42;95703.47;;;12.05;68.83
37892;BME280;45797;47.466;9.486;2023-05-20T03:10:46;95702.16;;;11.99;69.64
37892;BME280;45797;47.466;9.486;2023-05-20T03:15:50;95699.66;;;11.97;69.30
37892;BME280;45797;47.466;9.486;2023-05-20T03:20:50;95707.88;;;11.93;69.58
37892;BME280;45797;47.466;9.486;2023-05-20T03:25:51;95706.22;;;11.92;69.46
37892;BME280;45797;47.466;9.486;2023-05-20T03:30:53;95698.47;;;11.90;69.58
37892;BME280;45797;47.466;9.486;2023-05-20T03:35:56;95696.09;;;11.87;69.76
37892;BME280;45797;47.466;9.486;2023-05-20T03:40:58;95708.59;;;11.84;69.60
37892;BME280;45797;47.466;9.486;2023-05-20T03:45:58;95707.91;;;11.82;69.69
37892;BME280;45797;47.466;9.486;2023-05-20T03:51:01;95710.31;;;11.85;69.58
37892;BME280;45797;47.466;9.486;2023-05-20T03:56:02;95716.59;;;11.82;69.86
37892;BME280;45797;47.466;9.486;2023-05-20T04:01:07;95720.56;;;11.88;69.72
37892;BME280;45797;47.466;9.486;2023-05-20T04:06:09;95713.75;;;11.96;69.41
37892;BME280;45797;47.466;9.486;2023-05-20T04:11:12;95708.00;;;12.02;69.44
37892;BME280;45797;47.466;9.486;2023-05-20T04:16:13;95704.91;;;12.09;69.20
37892;BME280;45797;47.466;9.486;2023-05-20T04:21:16;95692.69;;;12.19;69.30
37892;BME280;45797;47.466;9.486;2023-05-20T04:26:18;95696.97;;;12.31;69.24
37892;BME280;45797;47.466;9.486;2023-05-20T04:31:20;95695.28;;;12.41;68.50
37892;BME280;45797;47.466;9.486;2023-05-20T04:36:29;95696.91;;;12.53;68.76
37892;BME280;45797;47.466;9.486;2023-05-20T04:41:31;95692.81;;;12.61;68.84
37892;BME280;45797;47.466;9.486;2023-05-20T04:46:39;95686.22;;;12.66;68.48
37892;BME280;45797;47.466;9.486;2023-05-20T04:51:40;95698.72;;;12.74;68.52
37892;BME280;45797;47.466;9.486;2023-05-20T04:56:40;95692.25;;;12.78;68.49
37892;BME280;45797;47.466;9.486;2023-05-20T05:01:42;95696.06;;;12.85;68.38
37892;BME280;45797;47.466;9.486;2023-05-20T05:06:47;95696.47;;;13.01;68.11
37892;BME280;45797;47.466;9.486;2023-05-20T05:11:54;95686.31;;;13.18;68.02
37892;BME280;45797;47.466;9.486;2023-05-20T05:16:57;95686.47;;;13.37;67.81
37892;BME280;45797;47.466;9.486;2023-05-20T05:21:59;95686.56;;;13.56;67.39
37892;BME280;45797;47.466;9.486;2023-05-20T05:27:04;95675.97;;;13.77;67.02
37892;BME280;45797;47.466;9.486;2023-05-20T05:32:05;95674.38;;;13.95;67.01
37892;BME280;45797;47.466;9.486;2023-05-20T05:37:14;95672.63;;;14.15;66.77
37892;BME280;45797;47.466;9.486;2023-05-20T05:42:28;95680.44;;;14.36;66.42
37892;BME280;45797;47.466;9.486;2023-05-20T05:47:31;95682.13;;;14.47;66.14
37892;BME280;45797;47.466;9.486;2023-05-20T05:52:34;95684.91;;;14.55;66.34
37892;BME280;45797;47.466;9.486;2023-05-20T05:57:37;95685.34;;;14.70;66.15
37892;BME280;45797;47.466;9.486;2023-05-20T06:02:39;95672.72;;;14.93;65.54
37892;BME280;45797;47.466;9.486;2023-05-20T06:07:40;95668.81;;;14.97;65.80
37892;BME280;45797;47.466;9.486;2023-05-20T06:12:47;95672.13;;;15.18;65.67
37892;BME280;45797;47.466;9.486;2023-05-20T06:17:48;95673.44;;;15.41;64.89
37892;BME280;45797;47.466;9.486;2023-05-20T06:22:51;95668.97;;;15.61;64.65
37892;BME280;45797;47.466;9.486;2023-05-20T06:28:03;95665.16;;;15.83;63.75
37892;BME280;45797;47.466;9.486;2023-05-20T06:33:04;95660.16;;;16.08;63.83
37892;BME280;45797;47.466;9.486;2023-05-20T06:38:12;95658.88;;;16.39;63.00
37892;BME280;45797;47.466;9.486;2023-05-20T06:43:16;95643.88;;;16.66;62.55
37892;BME280;45797;47.466;9.486;2023-05-20T06:48:48;95646.13;;;16.88;62.47
37892;BME280;45797;47.466;9.486;2023-05-20T06:53:49;95649.94;;;17.11;62.19
37892;BME280;45797;47.466;9.486;2023-05-20T06:58:51;95643.56;;;17.04;62.44
37892;BME280;45797;47.466;9.486;2023-05-20T07:03:52;95651.91;;;17.09;62.13
37892;BME280;45797;47.466;9.486;2023-05-20T07:08:52;95643.00;;;17.36;61.71
37892;BME280;45797;47.466;9.486;2023-05-20T07:14:04;95630.19;;;17.58;61.45
37892;BME280;45797;47.466;9.486;2023-05-20T07:19:15;95630.50;;;17.81;60.73
37892;BME280;45797;47.466;9.486;2023-05-20T07:24:16;95626.75;;;17.91;61.18
37892;BME280;45797;47.466;9.486;2023-05-20T07:29:25;95620.00;;;18.05;60.22
37892;BME280;45797;47.466;9.486;2023-05-20T07:34:25;95621.25;;;17.85;60.58
37892;BME280;45797;47.466;9.486;2023-05-20T07:39:26;95614.69;;;18.05;60.46
37892;BME280;45797;47.466;9.486;2023-05-20T07:44:27;95615.47;;;18.40;60.08
37892;BME280;45797;47.466;9.486;2023-05-20T07:49:28;95623.41;;;18.56;59.47
37892;BME280;45797;47.466;9.486;2023-05-20T07:54:29;95619.81;;;18.73;59.37
37892;BME280;45797;47.466;9.486;2023-05-20T07:59:29;95620.44;;;18.51;59.75
37892;BME280;45797;47.466;9.486;2023-05-20T08:04:36;95620.38;;;18.26;60.38
37892;BME280;45797;47.466;9.486;2023-05-20T08:09:36;95606.81;;;18.30;60.14
37892;BME280;45797;47.466;9.486;2023-05-20T08:14:38;95609.16;;;18.57;59.45
37892;BME280;45797;47.466;9.486;2023-05-20T08:19:40;95619.16;;;18.71;59.67
37892;BME280;45797;47.466;9.486;2023-05-20T08:24:42;95614.19;;;18.84;59.02
37892;BME280;45797;47.466;9.486;2023-05-20T08:29:44;95605.84;;;19.28;58.24
37892;BME280;45797;47.466;9.486;2023-05-20T08:34:44;95612.28;;;19.58;57.71
37892;BME280;45797;47.466;9.486;2023-05-20T08:39:50;95606.78;;;19.68;57.75
37892;BME280;45797;47.466;9.486;2023-05-20T08:44:51;95595.66;;;19.64;57.55
37892;BME280;45797;47.466;9.486;2023-05-20T08:49:52;95600.63;;;19.76;57.30
37892;BME280;45797;47.466;9.486;2023-05-20T08:54:56;95601.41;;;19.84;57.10
37892;BME280;45797;47.466;9.486;2023-05-20T08:59:58;95596.81;;;20.09;56.56
37892;BME280;45797;47.466;9.486;2023-05-20T09:04:59;95594.19;;;20.32;56.15
37892;BME280;45797;47.466;9.486;2023-05-20T09:10:11;95586.41;;;20.53;55.61
37892;BME280;45797;47.466;9.486;2023-05-20T09:15:14;95593.22;;;20.79;55.75
37892;BME280;45797;47.466;9.486;2023-05-20T09:20:25;95585.63;;;21.14;54.67
37892;BME280;45797;47.466;9.486;2023-05-20T09:25:28;95587.09;;;21.16;54.47
37892;BME280;45797;47.466;9.486;2023-05-20T09:30:34;95588.63;;;21.10;54.70
37892;BME280;45797;47.466;9.486;2023-05-20T09:35:48;95592.28;;;20.95;54.82
37892;BME280;45797;47.466;9.486;2023-05-20T09:40:54;95602.44;;;20.91;55.08
37892;BME280;45797;47.466;9.486;2023-05-20T09:45:55;95593.63;;;20.91;54.75
37892;BME280;45797;47.466;9.486;2023-05-20T09:50:56;95587.78;;;21.33;54.03
37892;BME280;45797;47.466;9.486;2023-05-20T09:56:17;95581.91;;;21.67;53.58
37892;BME280;45797;47.466;9.486;2023-05-20T10:01:19;95574.72;;;21.82;53.44
37892;BME280;45797;47.466;9.486;2023-05-20T10:06:36;95577.66;;;22.02;53.12
37892;BME280;45797;47.466;9.486;2023-05-20T10:22:25;95576.72;;;21.95;53.33
37892;BME280;45797;47.466;9.486;2023-05-20T10:27:28;95572.84;;;21.98;53.29
37892;BME280;45797;47.466;9.486;2023-05-20T10:32:34;95586.31;;;22.19;52.91
37892;BME280;45797;47.466;9.486;2023-05-20T10:37:43;95575.16;;;22.51;52.67
37892;BME280;45797;47.466;9.486;2023-05-20T10:42:45;95577.59;;;22.68;51.90
37892;BME280;45797;47.466;9.486;2023-05-20T10:48:07;95580.56;;;22.79;51.82
37892;BME280;45797;47.466;9.486;2023-05-20T10:53:13;95581.31;;;22.52;52.31
37892;BME280;45797;47.466;9.486;2023-05-20T10:58:15;95577.75;;;22.45;52.38
37892;BME280;45797;47.466;9.486;2023-05-20T11:03:20;95570.00;;;22.93;51.59
37892;BME280;45797;47.466;9.486;2023-05-20T11:08:28;95572.41;;;23.37;50.71
37892;BME280;45797;47.466;9.486;2023-05-20T11:13:34;95563.16;;;23.12;51.47
37892;BME280;45797;47.466;9.486;2023-05-20T11:18:35;95564.09;;;22.76;51.97
37892;BME280;45797;47.466;9.486;2023-05-20T11:23:37;95565.69;;;22.49;52.28
37892;BME280;45797;47.466;9.486;2023-05-20T11:28:43;95558.50;;;22.28;52.47
37892;BME280;45797;47.466;9.486;2023-05-20T11:33:45;95556.66;;;22.29;52.57
37892;BME280;45797;47.466;9.486;2023-05-20T11:38:46;95555.56;;;22.44;52.40
37892;BME280;45797;47.466;9.486;2023-05-20T11:43:57;95549.78;;;22.62;51.96
37892;BME280;45797;47.466;9.486;2023-05-20T11:48:58;95544.91;;;22.87;51.64
37892;BME280;45797;47.466;9.486;2023-05-20T11:54:08;95549.94;;;23.25;50.88
37892;BME280;45797;47.466;9.486;2023-05-20T11:59:11;95536.84;;;23.36;50.68
37892;BME280;45797;47.466;9.486;2023-05-20T12:04:12;95530.56;;;23.92;49.60
37892;BME280;45797;47.466;9.486;2023-05-20T12:09:14;95534.88;;;24.41;48.90
37892;BME280;45797;47.466;9.486;2023-05-20T12:14:16;95526.88;;;24.61;48.52
37892;BME280;45797;47.466;9.486;2023-05-20T12:19:18;95522.97;;;24.70;48.39
37892;BME280;45797;47.466;9.486;2023-05-20T12:24:19;95520.91;;;24.72;48.53
37892;BME280;45797;47.466;9.486;2023-05-20T12:29:20;95509.16;;;24.66;48.82
37892;BME280;45797;47.466;9.486;2023-05-20T12:34:22;95508.34;;;24.86;48.59
37892;BME280;45797;47.466;9.486;2023-05-20T12:39:31;95503.78;;;24.79;48.58
37892;BME280;45797;47.466;9.486;2023-05-20T12:44:35;95505.00;;;24.44;49.06
37892;BME280;45797;47.466;9.486;2023-05-20T12:49:43;95487.53;;;24.74;48.47
37892;BME280;45797;47.466;9.486;2023-05-20T12:54:44;95486.47;;;25.09;47.90
37892;BME280;45797;47.466;9.486;2023-05-20T12:59:51;95488.69;;;25.51;47.08
37892;BME280;45797;47.466;9.486;2023-05-20T13:05:05;95481.00;;;25.68;47.13
37892;BME280;45797;47.466;9.486;2023-05-20T13:10:06;95485.31;;;25.76;46.63
37892;BME280;45797;47.466;9.486;2023-05-20T13:15:09;95480.97;;;25.75;46.98
37892;BME280;45797;47.466;9.486;2023-05-20T13:20:11;95478.78;;;26.03;46.62
37892;BME280;45797;47.466;9.486;2023-05-20T13:25:16;95468.41;;;26.13;46.24
37892;BME280;45797;47.466;9.486;2023-05-20T13:30:17;95465.59;;;26.33;46.01
37892;BME280;45797;47.466;9.486;2023-05-20T13:35:21;95468.28;;;26.40;45.78
37892;BME280;45797;47.466;9.486;2023-05-20T13:40:22;95454.25;;;26.88;45.34
37892;BME280;45797;47.466;9.486;2023-05-20T13:45:22;95437.47;;;26.92;45.22
37892;BME280;45797;47.466;9.486;2023-05-20T13:50:32;95433.41;;;27.08;44.44
37892;BME280;45797;47.466;9.486;2023-05-20T13:55:32;95437.91;;;27.32;44.41
37892;BME280;45797;47.466;9.486;2023-05-20T14:00:36;95429.78;;;27.57;44.21
37892;BME280;45797;47.466;9.486;2023-05-20T14:05:43;95432.22;;;27.96;43.61
37892;BME280;45797;47.466;9.486;2023-05-20T14:10:44;95435.59;;;27.73;43.48
37892;BME280;45797;47.466;9.486;2023-05-20T14:15:46;95443.88;;;27.35;44.22
37892;BME280;45797;47.466;9.486;2023-05-20T14:20:48;95447.72;;;27.02;44.91
37892;BME280;45797;47.466;9.486;2023-05-20T14:25:49;95456.84;;;27.01;45.01
37892;BME280;45797;47.466;9.486;2023-05-20T14:30:50;95448.19;;;27.17;44.27
37892;BME280;45797;47.466;9.486;2023-05-20T14:35:52;95444.34;;;27.31;44.09
37892;BME280;45797;47.466;9.486;2023-05-20T14:40:59;95441.06;;;27.66;43.80
37892;BME280;45797;47.466;9.486;2023-05-20T14:46:03;95440.13;;;27.91;43.08
37892;BME280;45797;47.466;9.486;2023-05-20T14:51:03;95448.53;;;27.82;42.98
37892;BME280;45797;47.466;9.486;2023-05-20T14:56:15;95442.25;;;27.52;43.73
37892;BME280;45797;47.466;9.486;2023-05-20T15:01:16;95439.03;;;27.43;43.85
37892;BME280;45797;47.466;9.486;2023-05-20T15:06:18;95440.09;;;27.42;43.66
37892;BME280;45797;47.466;9.486;2023-05-20T15:11:22;95432.81;;;27.61;43.86
37892;BME280;45797;47.466;9.486;2023-05-20T15:16:25;95432.97;;;27.66;42.92
37892;BME280;45797;47.466;9.486;2023-05-20T15:21:26;95429.84;;;27.69;43.03
37892;BME280;45797;47.466;9.486;2023-05-20T15:26:43;95432.53;;;27.87;42.81
37892;BME280;45797;47.466;9.486;2023-05-20T15:31:45;95427.44;;;28.09;42.44
37892;BME280;45797;47.466;9.486;2023-05-20T15:36:48;95427.63;;;28.26;42.59
37892;BME280;45797;47.466;9.486;2023-05-20T15:42:03;95428.50;;;28.38;42.47
37892;BME280;45797;47.466;9.486;2023-05-20T15:47:04;95426.91;;;28.19;42.55
37892;BME280;45797;47.466;9.486;2023-05-20T15:52:04;95435.72;;;28.26;42.73
37892;BME280;45797;47.466;9.486;2023-05-20T15:57:12;95418.94;;;28.66;41.80
37892;BME280;45797;47.466;9.486;2023-05-20T16:02:14;95422.50;;;28.90;41.28
37892;BME280;45797;47.466;9.486;2023-05-20T16:07:42;95426.59;;;29.51;40.32
37892;BME280;45797;47.466;9.486;2023-05-20T16:13:02;95425.16;;;28.78;41.71
37892;BME280;45797;47.466;9.486;2023-05-20T16:18:03;95433.19;;;27.83;43.06
37892;BME280;45797;47.466;9.486;2023-05-20T16:23:05;95418.91;;;27.27;43.91
37892;BME280;45797;47.466;9.486;2023-05-20T16:28:06;95421.47;;;26.97;44.50
37892;BME280;45797;47.466;9.486;2023-05-20T16:33:07;95415.09;;;26.73;44.72
37892;BME280;45797;47.466;9.486;2023-05-20T16:38:09;95415.63;;;26.57;44.80
37892;BME280;45797;47.466;9.486;2023-05-20T16:43:09;95425.16;;;26.22;44.73
37892;BME280;45797;47.466;9.486;2023-05-20T16:48:11;95421.09;;;25.81;46.27
37892;BME280;45797;47.466;9.486;2023-05-20T16:53:22;95424.75;;;25.35;46.61
37892;BME280;45797;47.466;9.486;2023-05-20T16:58:24;95424.63;;;24.97;47.00
37892;BME280;45797;47.466;9.486;2023-05-20T17:03:24;95433.53;;;24.58;47.85
37892;BME280;45797;47.466;9.486;2023-05-20T17:08:25;95432.84;;;24.22;48.59
37892;BME280;45797;47.466;9.486;2023-05-20T17:13:28;95425.78;;;23.88;49.18
37892;BME280;45797;47.466;9.486;2023-05-20T17:18:29;95427.09;;;23.58;50.15
37892;BME280;45797;47.466;9.486;2023-05-20T17:23:30;95428.00;;;23.30;50.34
37892;BME280;45797;47.466;9.486;2023-05-20T17:28:30;95445.56;;;23.05;51.53
37892;BME280;45797;47.466;9.486;2023-05-20T17:33:30;95442.94;;;22.84;51.53
37892;BME280;45797;47.466;9.486;2023-05-20T17:38:49;95448.34;;;22.69;51.74
37892;BME280;45797;47.466;9.486;2023-05-20T17:43:58;95445.97;;;22.52;52.31
37892;BME280;45797;47.466;9.486;2023-05-20T17:49:01;95447.44;;;22.34;52.77
37892;BME280;45797;47.466;9.486;2023-05-20T17:54:06;95443.00;;;22.19;52.73
37892;BME280;45797;47.466;9.486;2023-05-20T17:59:09;95434.50;;;22.09;53.14
37892;BME280;45797;47.466;9.486;2023-05-20T18:04:15;95447.31;;;21.99;53.32
37892;BME280;45797;47.466;9.486;2023-05-20T18:09:19;95442.84;;;21.85;53.54
37892;BME280;45797;47.466;9.486;2023-05-20T18:14:24;95444.16;;;21.74;54.09
37892;BME280;45797;47.466;9.486;2023-05-20T18:19:26;95443.19;;;21.60;54.18
37892;BME280;45797;47.466;9.486;2023-05-20T18:24:26;95456.53;;;21.46;54.67
37892;BME280;45797;47.466;9.486;2023-05-20T18:29:31;95452.69;;;21.33;54.76
37892;BME280;45797;47.466;9.486;2023-05-20T18:34:31;95469.03;;;21.16;55.25
37892;BME280;45797;47.466;9.486;2023-05-20T18:39:34;95472.50;;;21.01;55.58
37892;BME280;45797;47.466;9.486;2023-05-20T18:45:09;95474.94;;;20.73;56.21
37892;BME280;45797;47.466;9.486;2023-05-20T18:50:21;95479.38;;;20.66;56.46
37892;BME280;45797;47.466;9.486;2023-05-20T18:55:33;95469.31;;;20.53;56.63
37892;BME280;45797;47.466;9.486;2023-05-20T19:01:00;95474.22;;;20.42;56.75
37892;BME280;45797;47.466;9.486;2023-05-20T19:06:01;95481.63;;;20.32;57.17
37892;BME280;45797;47.466;9.486;2023-05-20T19:11:09;95488.38;;;20.19;57.31
37892;BME280;45797;47.466;9.486;2023-05-20T19:16:09;95498.09;;;20.04;57.47
37892;BME280;45797;47.466;9.486;2023-05-20T19:21:24;95507.66;;;19.90;57.84
37892;BME280;45797;47.466;9.486;2023-05-20T19:26:26;95518.84;;;19.78;58.37
37892;BME280;45797;47.466;9.486;2023-05-20T19:31:31;95513.47;;;19.63;58.34
37892;BME280;45797;47.466;9.486;2023-05-20T19:36:34;95518.44;;;19.50;58.64
37892;BME280;45797;47.466;9.486;2023-05-20T19:41:37;95519.34;;;19.34;59.17
37892;BME280;45797;47.466;9.486;2023-05-20T19:46:39;95514.38;;;19.23;59.77
37892;BME280;45797;47.466;9.486;2023-05-20T19:51:42;95506.47;;;19.15;59.39
37892;BME280;45797;47.466;9.486;2023-05-20T19:56:42;95505.31;;;19.09;59.99
37892;BME280;45797;47.466;9.486;2023-05-20T20:01:43;95488.91;;;19.05;59.92
37892;BME280;45797;47.466;9.486;2023-05-20T20:06:49;95476.47;;;18.98;59.85
37892;BME280;45797;47.466;9.486;2023-05-20T20:12:14;95475.31;;;18.84;60.07
37892;BME280;45797;47.466;9.486;2023-05-20T20:17:16;95471.19;;;18.81;60.12
37892;BME280;45797;47.466;9.486;2023-05-20T20:22:18;95472.53;;;18.77;60.52
37892;BME280;45797;47.466;9.486;2023-05-20T20:27:19;95466.06;;;18.72;60.30
37892;BME280;45797;47.466;9.486;2023-05-20T20:32:28;95468.06;;;18.70;60.51
37892;BME280;45797;47.466;9.486;2023-05-20T20:37:34;95481.50;;;18.68;60.74
37892;BME280;45797;47.466;9.486;2023-05-20T20:42:56;95481.50;;;18.60;60.69
37892;BME280;45797;47.466;9.486;2023-05-20T20:48:05;95488.09;;;18.56;60.85
37892;BME280;45797;47.466;9.486;2023-05-20T20:53:17;95484.97;;;18.52;60.69
37892;BME280;45797;47.466;9.486;2023-05-20T20:58:21;95480.66;;;18.51;60.82
37892;BME280;45797;47.466;9.486;2023-05-20T21:03:25;95474.19;;;18.46;61.20
37892;BME280;45797;47.466;9.486;2023-05-20T21:08:26;95475.88;;;18.39;61.44
37892;BME280;45797;47.466;9.486;2023-05-20T21:13:30;95461.28;;;18.35;61.23
37892;BME280;45797;47.466;9.486;2023-05-20T21:18:30;95463.28;;;18.24;61.62
37892;BME280;45797;47.466;9.486;2023-05-20T21:23:30;95458.63;;;18.18;62.07
37892;BME280;45797;47.466;9.486;2023-05-20T21:28:30;95465.72;;;18.10;61.94
37892;BME280;45797;47.466;9.486;2023-05-20T21:33:32;95461.09;;;18.04;62.18
37892;BME280;45797;47.466;9.486;2023-05-20T21:38:32;95452.16;;;17.96;61.96
37892;BME280;45797;47.466;9.486;2023-05-20T21:43:33;95451.84;;;17.91;62.11
37892;BME280;45797;47.466;9.486;2023-05-20T21:48:43;95451.81;;;17.83;62.42
37892;BME280;45797;47.466;9.486;2023-05-20T21:53:43;95450.63;;;17.78;62.27
37892;BME280;45797;47.466;9.486;2023-05-20T21:58:45;95453.28;;;17.69;62.76
37892;BME280;45797;47.466;9.486;2023-05-20T22:04:11;95445.59;;;17.58;62.82
37892;BME280;45797;47.466;9.486;2023-05-20T22:09:17;95440.97;;;17.60;62.64
37892;BME280;45797;47.466;9.486;2023-05-20T22:14:19;95438.66;;;17.57;63.30
37892;BME280;45797;47.466;9.486;2023-05-20T22:19:19;95427.69;;;17.52;63.34
37892;BME280;45797;47.466;9.486;2023-05-20T22:24:35;95422.75;;;17.49;62.88
37892;BME280;45797;47.466;9.486;2023-05-20T22:29:51;95406.19;;;17.47;63.35
37892;BME280;45797;47.466;9.486;2023-05-20T22:34:52;95401.56;;;17.49;63.39
37892;BME280;45797;47.466;9.486;2023-05-20T22:39:55;95397.25;;;17.48;63.57
37892;BME280;45797;47.466;9.486;2023-05-20T22:45:06;95401.88;;;17.46;63.47
37892;BME280;45797;47.466;9.486;2023-05-20T22:50:10;95395.59;;;17.47;63.67
37892;BME280;45797;47.466;9.486;2023-05-20T22:55:12;95394.09;;;17.45;63.79
37892;BME280;45797;47.466;9.486;2023-05-20T23:00:16;95392.94;;;17.47;63.48
37892;BME280;45797;47.466;9.486;2023-05-20T23:05:17;95391.28;;;17.46;64.14
37892;BME280;45797;47.466;9.486;2023-05-20T23:10:18;95389.13;;;17.41;64.40
37892;BME280;45797;47.466;9.486;2023-05-20T23:15:29;95383.81;;;17.41;64.04
37892;BME280;45797;47.466;9.486;2023-05-20T23:20:32;95377.22;;;17.46;64.36
37892;BME280;45797;47.466;9.486;2023-05-20T23:25:32;95377.88;;;17.39;64.61
37892;BME280;45797;47.466;9.486;2023-05-20T23:30:33;95376.03;;;17.32;64.82
37892;BME280;45797;47.466;9.486;2023-05-20T23:35:43;95373.53;;;17.30;64.63
37892;BME280;45797;47.466;9.486;2023-05-20T23:40:53;95375.38;;;17.30;64.85
37892;BME280;45797;47.466;9.486;2023-05-20T23:45:59;95372.72;;;17.30;64.80
37892;BME280;45797;47.466;9.486;2023-05-20T23:51:09;95366.59;;;17.29;65.15
37892;BME280;45797;47.466;9.486;2023-05-20T23:56:12;95358.00;;;17.27;65.06
